createdAt,value
2018-12-22T00:00:19.707Z,12.9
2018-12-22T00:01:09.185Z,12.9
2018-12-22T00:02:00.601Z,12.9
2018-12-22T00:02:50.155Z,12.9
2018-12-22T00:03:39.966Z,12.9
2018-12-22T00:04:30.111Z,12.9
2018-12-22T00:05:19.825Z,12.9
2018-12-22T00:06:09.852Z,12.9
2018-12-22T00:07:00.471Z,12.8
2018-12-22T00:07:50.871Z,12.8
2018-12-22T00:08:40.069Z,12.8
2018-12-22T00:09:30.072Z,12.8
2018-12-22T00:10:19.620Z,12.8
2018-12-22T00:11:09.124Z,12.8
2018-12-22T00:12:00.159Z,12.8
2018-12-22T00:12:50.812Z,12.8
2018-12-22T00:13:40.632Z,12.8
2018-12-22T00:14:30.954Z,12.8
2018-12-22T00:32:42.670Z,12.6
2018-12-22T00:33:33.305Z,12.6
2018-12-22T00:34:23.595Z,12.6
2018-12-22T00:35:14.025Z,12.6
2018-12-22T00:36:03.188Z,12.6
2018-12-22T00:36:53.440Z,12.6
2018-12-22T00:37:44.045Z,12.6
2018-12-22T00:38:33.893Z,12.5
2018-12-22T00:39:23.855Z,12.5
2018-12-22T00:40:13.377Z,12.5
2018-12-22T00:41:03.193Z,12.5
2018-12-22T00:41:53.243Z,12.5
2018-12-22T00:42:43.970Z,12.5
2018-12-22T00:43:30.945Z,12.5
2018-12-22T00:44:23.420Z,12.5
2018-12-22T00:45:14.118Z,12.4
2018-12-22T00:46:02.853Z,12.4
2018-12-22T00:46:53.863Z,12.4
2018-12-22T00:47:43.447Z,12.4
2018-12-22T00:48:34.103Z,12.4
2018-12-22T00:49:23.820Z,12.4
2018-12-22T00:50:13.905Z,12.4
2018-12-22T00:51:02.853Z,12.4
2018-12-22T00:51:54.268Z,12.4
2018-12-22T00:52:43.565Z,12.4
2018-12-22T00:53:34.221Z,12.4
2018-12-22T00:54:26.429Z,12.4
2018-12-22T00:55:14.577Z,12.4
2018-12-22T00:56:04.361Z,12.4
2018-12-22T00:56:54.860Z,12.4
2018-12-22T00:57:43.918Z,12.4
2018-12-22T00:58:39.640Z,12.4
2018-12-22T00:59:24.505Z,12.4
2018-12-22T01:00:16.638Z,12.3
2018-12-22T01:01:04.485Z,12.3
2018-12-22T01:01:53.916Z,12.3
2018-12-22T01:02:45.420Z,12.3
2018-12-22T01:03:35.560Z,12.3
2018-12-22T01:04:25.686Z,12.3
2018-12-22T01:05:14.380Z,12.3
2018-12-22T01:06:05.203Z,12.3
2018-12-22T01:06:57.585Z,12.3
2018-12-22T01:07:45.278Z,12.3
2018-12-22T01:08:35.911Z,12.3
2018-12-22T01:09:25.416Z,12.3
2018-12-22T01:10:16.285Z,12.3
2018-12-22T01:11:06.100Z,12.3
2018-12-22T01:11:56.163Z,12.3
2018-12-22T01:12:46.183Z,12.2
2018-12-22T01:13:35.690Z,12.2
2018-12-22T01:14:26.067Z,12.2
2018-12-22T01:15:16.096Z,12.2
2018-12-22T01:16:06.697Z,12.2
2018-12-22T01:16:54.840Z,12.2
2018-12-22T01:17:46.318Z,12.2
2018-12-22T01:18:35.773Z,12.2
2018-12-22T01:19:25.863Z,12.2
2018-12-22T01:20:16.107Z,12.2
2018-12-22T01:21:06.220Z,12.2
2018-12-22T01:21:57.081Z,12.2
2018-12-22T01:22:45.810Z,12.2
2018-12-22T01:23:36.095Z,12.1
2018-12-22T01:24:27.082Z,12.1
2018-12-22T01:25:16.205Z,12.1
2018-12-22T01:26:06.790Z,12.1
2018-12-22T01:26:56.874Z,12.1
2018-12-22T01:27:47.507Z,12.1
2018-12-22T01:28:45.785Z,12.1
2018-12-22T01:29:26.270Z,12.1
2018-12-22T01:30:16.310Z,12.1
2018-12-22T01:31:07.484Z,12.1
2018-12-22T01:31:57.035Z,12.1
2018-12-22T01:32:47.853Z,12.1
2018-12-22T01:33:37.715Z,12.1
2018-12-22T01:34:27.112Z,12.1
2018-12-22T01:35:18.252Z,12.1
2018-12-22T01:36:07.502Z,12.1
2018-12-22T01:36:57.584Z,12.1
2018-12-22T01:37:46.875Z,12.1
2018-12-22T01:38:37.362Z,12.1
2018-12-22T01:39:27.226Z,12.1
2018-12-22T01:40:18.337Z,12.1
2018-12-22T01:41:08.362Z,12
2018-12-22T01:41:57.603Z,12.1
2018-12-22T01:42:48.257Z,12.1
2018-12-22T01:43:38.369Z,12
2018-12-22T01:44:28.052Z,12
2018-12-22T01:45:17.578Z,12
2018-12-22T01:46:07.254Z,12
2018-12-22T01:46:57.224Z,12
2018-12-22T01:47:48.006Z,12
2018-12-22T01:48:37.623Z,12
2018-12-22T01:49:30.179Z,12
2018-12-22T01:50:18.499Z,11.9
2018-12-22T01:51:08.679Z,12
2018-12-22T01:51:58.504Z,12
2018-12-22T01:52:48.658Z,11.9
2018-12-22T01:53:37.938Z,11.9
2018-12-22T01:54:28.197Z,11.9
2018-12-22T01:55:18.806Z,11.9
2018-12-22T01:56:08.816Z,12
2018-12-22T01:56:59.183Z,11.9
2018-12-22T01:57:48.641Z,11.9
2018-12-22T01:58:38.171Z,11.9
2018-12-22T01:59:28.846Z,11.9
2018-12-22T02:00:18.861Z,11.9
2018-12-22T02:01:09.001Z,11.9
2018-12-22T02:01:58.436Z,11.9
2018-12-22T02:02:49.322Z,11.9
2018-12-22T02:03:39.328Z,11.9
2018-12-22T02:04:29.134Z,11.9
2018-12-22T02:05:19.759Z,11.9
2018-12-22T02:06:10.063Z,11.9
2018-12-22T02:06:59.863Z,11.9
2018-12-22T02:07:49.885Z,11.9
2018-12-22T02:08:38.598Z,11.9
2018-12-22T02:09:29.593Z,11.9
2018-12-22T02:10:20.288Z,11.9
2018-12-22T02:11:10.150Z,11.9
2018-12-22T02:11:59.922Z,11.9
2018-12-22T02:12:49.697Z,11.9
2018-12-22T02:13:40.295Z,11.9
2018-12-22T02:14:30.657Z,11.9
2018-12-22T02:15:19.320Z,11.9
2018-12-22T02:16:09.927Z,11.9
2018-12-22T02:17:00.225Z,11.9
2018-12-22T02:17:50.869Z,11.9
2018-12-22T02:18:40.614Z,11.9
2018-12-22T02:19:30.467Z,11.9
2018-12-22T02:20:19.667Z,11.9
2018-12-22T02:21:10.661Z,11.9
2018-12-22T02:22:00.445Z,12
2018-12-22T02:22:50.655Z,12
2018-12-22T02:23:41.062Z,12
2018-12-22T02:24:30.219Z,12
2018-12-22T02:25:20.552Z,12
2018-12-22T02:26:10.059Z,12
2018-12-22T02:27:00.471Z,12
2018-12-22T02:27:50.997Z,12
2018-12-22T02:28:40.838Z,12.1
2018-12-22T02:29:32.010Z,12
2018-12-22T02:30:20.191Z,12.1
2018-12-22T02:31:10.899Z,12.1
2018-12-22T02:32:01.372Z,12.1
2018-12-22T02:32:51.779Z,12.1
2018-12-22T02:33:41.835Z,12.1
2018-12-22T02:34:31.002Z,12.1
2018-12-22T02:35:21.528Z,12.1
2018-12-22T02:36:11.494Z,12.1
2018-12-22T02:37:01.661Z,12.1
2018-12-22T02:37:51.521Z,12.1
2018-12-22T02:38:42.119Z,12.1
2018-12-22T02:39:32.189Z,12.1
2018-12-22T02:40:22.034Z,12.2
2018-12-22T02:41:11.787Z,12.2
2018-12-22T02:42:01.960Z,12.2
2018-12-22T02:42:51.793Z,12.2
2018-12-22T02:43:41.539Z,12.2
2018-12-22T02:44:32.438Z,12.2
2018-12-22T02:45:21.671Z,12.3
2018-12-22T02:46:12.433Z,12.3
2018-12-22T02:47:02.041Z,12.3
2018-12-22T02:47:52.759Z,12.3
2018-12-22T02:48:41.768Z,12.3
2018-12-22T02:49:32.086Z,12.3
2018-12-22T02:50:22.448Z,12.3
2018-12-22T02:51:11.786Z,12.3
2018-12-22T02:52:02.174Z,12.3
2018-12-22T02:52:52.726Z,12.3
2018-12-22T02:53:43.178Z,12.3
2018-12-22T02:54:32.895Z,12.4
2018-12-22T02:55:22.705Z,12.4
2018-12-22T02:56:12.795Z,12.4
2018-12-22T02:57:03.608Z,12.4
2018-12-22T02:57:52.795Z,12.4
2018-12-22T02:58:42.452Z,12.4
2018-12-22T02:59:33.443Z,12.4
2018-12-22T03:00:21.852Z,12.4
2018-12-22T03:01:12.465Z,12.4
2018-12-22T03:02:03.421Z,12.5
2018-12-22T03:02:53.435Z,12.5
2018-12-22T03:03:43.210Z,12.5
2018-12-22T03:04:33.034Z,12.5
2018-12-22T03:05:23.272Z,12.5
2018-12-22T03:06:13.686Z,12.6
2018-12-22T03:07:03.882Z,12.6
2018-12-22T03:07:53.736Z,12.6
2018-12-22T03:08:44.200Z,12.6
2018-12-22T03:09:34.221Z,12.6
2018-12-22T03:10:24.155Z,12.6
2018-12-22T03:11:14.072Z,12.6
2018-12-22T03:12:04.554Z,12.6
2018-12-22T03:12:53.683Z,12.6
2018-12-22T03:13:43.287Z,12.6
2018-12-22T03:14:33.659Z,12.7
2018-12-22T03:15:24.223Z,12.7
2018-12-22T03:16:13.706Z,12.7
2018-12-22T03:17:03.717Z,12.8
2018-12-22T03:17:54.492Z,12.8
2018-12-22T03:18:44.030Z,12.8
2018-12-22T03:19:34.332Z,12.8
2018-12-22T03:20:24.172Z,12.8
2018-12-22T03:21:13.616Z,12.8
2018-12-22T03:22:03.591Z,12.8
2018-12-22T03:22:54.082Z,12.8
2018-12-22T03:23:44.047Z,12.9
2018-12-22T03:24:34.219Z,12.9
2018-12-22T03:25:24.242Z,12.9
2018-12-22T03:26:15.123Z,12.9
2018-12-22T03:27:05.414Z,12.9
2018-12-22T03:27:55.926Z,12.9
2018-12-22T03:28:44.937Z,12.9
2018-12-22T03:29:35.379Z,12.9
2018-12-22T03:30:26.001Z,12.9
2018-12-22T03:31:15.755Z,13
2018-12-22T03:32:05.690Z,13
2018-12-22T03:32:55.150Z,13
2018-12-22T03:33:45.591Z,13
2018-12-22T03:34:35.083Z,13.1
2018-12-22T03:35:25.450Z,13.1
2018-12-22T03:36:16.318Z,13.1
2018-12-22T03:37:05.987Z,13.1
2018-12-22T03:37:56.753Z,13.1
2018-12-22T03:38:45.329Z,13.1
2018-12-22T03:39:35.058Z,13.1
2018-12-22T03:40:25.654Z,13.1
2018-12-22T03:41:16.637Z,13.1
2018-12-22T03:42:06.198Z,13.2
2018-12-22T03:42:55.878Z,13.2
2018-12-22T03:43:45.333Z,13.3
2018-12-22T03:44:34.901Z,13.3
2018-12-22T03:45:26.457Z,13.3
2018-12-22T03:46:16.200Z,13.3
2018-12-22T03:47:06.670Z,13.3
2018-12-22T03:47:55.673Z,13.3
2018-12-22T03:48:46.050Z,13.3
2018-12-22T03:49:36.593Z,13.3
2018-12-22T03:50:26.589Z,13.3
2018-12-22T03:51:16.092Z,13.4
2018-12-22T03:52:05.928Z,13.4
2018-12-22T03:52:57.193Z,13.4
2018-12-22T03:53:46.280Z,13.4
2018-12-22T03:54:36.933Z,13.4
2018-12-22T03:55:26.460Z,13.4
2018-12-22T03:56:16.719Z,13.4
2018-12-22T03:57:07.049Z,13.4
2018-12-22T03:57:56.531Z,13.5
2018-12-22T03:58:46.349Z,13.5
2018-12-22T03:59:37.510Z,13.5
2018-12-22T04:00:26.443Z,13.5
2018-12-22T04:01:17.922Z,13.5
2018-12-22T04:02:07.938Z,13.6
2018-12-22T04:02:57.285Z,13.6
2018-12-22T04:03:47.118Z,13.6
2018-12-22T04:04:38.282Z,13.6
2018-12-22T04:05:27.196Z,13.6
2018-12-22T04:06:17.604Z,13.6
2018-12-22T04:07:06.688Z,13.6
2018-12-22T04:07:57.805Z,13.6
2018-12-22T04:08:47.699Z,13.6
2018-12-22T04:09:37.390Z,13.6
2018-12-22T04:10:28.042Z,13.7
2018-12-22T04:11:18.023Z,13.7
2018-12-22T04:12:07.960Z,13.7
2018-12-22T04:12:57.083Z,13.7
2018-12-22T04:13:49.015Z,13.7
2018-12-22T04:14:37.883Z,13.7
2018-12-22T04:15:27.708Z,13.8
2018-12-22T04:16:16.976Z,13.8
2018-12-22T04:17:07.327Z,13.8
2018-12-22T04:17:58.256Z,13.8
2018-12-22T04:18:48.260Z,13.8
2018-12-22T04:19:36.756Z,13.8
2018-12-22T04:20:28.708Z,13.8
2018-12-22T04:21:19.050Z,13.8
2018-12-22T04:22:07.882Z,13.9
2018-12-22T04:22:58.674Z,13.8
2018-12-22T04:23:49.148Z,13.9
2018-12-22T04:24:38.984Z,13.9
2018-12-22T04:25:29.908Z,13.9
2018-12-22T04:26:17.542Z,13.9
2018-12-22T04:27:08.842Z,13.9
2018-12-22T04:27:59.445Z,13.9
2018-12-22T04:28:49.219Z,13.9
2018-12-22T04:29:43.242Z,13.9
2018-12-22T04:30:29.384Z,13.9
2018-12-22T04:31:19.381Z,13.9
2018-12-22T04:32:09.476Z,14
2018-12-22T04:32:58.919Z,14
2018-12-22T04:33:49.576Z,14
2018-12-22T04:34:39.403Z,14
2018-12-22T04:35:29.571Z,14
2018-12-22T04:36:19.282Z,14.1
2018-12-22T04:37:09.311Z,14.1
2018-12-22T04:37:59.848Z,14.1
2018-12-22T04:38:49.856Z,14.1
2018-12-22T04:39:39.513Z,14.1
2018-12-22T04:40:29.472Z,14.1
2018-12-22T04:41:19.270Z,14.1
2018-12-22T04:42:10.858Z,14.1
2018-12-22T04:43:00.185Z,14.1
2018-12-22T04:43:50.273Z,14.2
2018-12-22T04:44:39.971Z,14.2
2018-12-22T05:02:00.371Z,14.4
2018-12-22T05:02:50.142Z,14.4
2018-12-22T05:03:40.261Z,14.4
2018-12-22T05:04:30.498Z,14.4
2018-12-22T05:05:20.609Z,14.4
2018-12-22T05:06:10.921Z,14.4
2018-12-22T05:07:00.991Z,14.4
2018-12-22T05:07:50.461Z,14.4
2018-12-22T05:08:40.601Z,14.4
2018-12-22T05:09:30.986Z,14.4
2018-12-22T05:10:20.794Z,14.4
2018-12-22T05:11:10.531Z,14.4
2018-12-22T05:12:01.603Z,14.3
2018-12-22T05:12:49.942Z,14.4
2018-12-22T05:13:40.698Z,14.3
2018-12-22T05:14:31.600Z,14.3
2018-12-22T05:15:21.280Z,14.3
2018-12-22T05:16:11.625Z,14.3
2018-12-22T05:17:01.609Z,14.3
2018-12-22T05:17:51.368Z,14.3
2018-12-22T05:18:40.865Z,14.3
2018-12-22T05:19:31.470Z,14.3
2018-12-22T05:20:23.671Z,14.3
2018-12-22T05:21:12.159Z,14.3
2018-12-22T05:22:01.132Z,14.3
2018-12-22T05:22:51.503Z,14.3
2018-12-22T05:23:42.107Z,14.3
2018-12-22T05:24:31.894Z,14.3
2018-12-22T05:25:21.346Z,14.2
2018-12-22T05:26:11.374Z,14.3
2018-12-22T05:27:01.992Z,14.2
2018-12-22T05:27:51.774Z,14.2
2018-12-22T05:28:41.827Z,14.2
2018-12-22T05:29:31.604Z,14.2
2018-12-22T05:30:22.750Z,14.2
2018-12-22T05:31:12.025Z,14.1
2018-12-22T05:32:02.669Z,14.1
2018-12-22T05:32:53.079Z,14.1
2018-12-22T05:33:42.497Z,14.1
2018-12-22T05:34:33.237Z,14.1
2018-12-22T05:35:22.467Z,14.1
2018-12-22T05:36:12.601Z,14.1
2018-12-22T05:37:03.268Z,14.1
2018-12-22T05:37:52.446Z,14.1
2018-12-22T05:38:41.133Z,14.1
2018-12-22T05:39:33.519Z,14.1
2018-12-22T05:40:22.353Z,14
2018-12-22T05:41:12.978Z,14
2018-12-22T05:42:02.586Z,14
2018-12-22T05:42:53.100Z,14
2018-12-22T05:43:42.900Z,14
2018-12-22T05:44:33.023Z,13.9
2018-12-22T05:45:23.513Z,13.9
2018-12-22T05:46:12.790Z,13.9
2018-12-22T05:47:03.389Z,13.9
2018-12-22T05:47:52.930Z,13.9
2018-12-22T05:48:43.465Z,13.9
2018-12-22T05:49:32.127Z,13.9
2018-12-22T05:50:23.648Z,13.9
2018-12-22T05:51:13.187Z,13.9
2018-12-22T05:52:03.207Z,13.9
2018-12-22T05:52:53.714Z,13.8
2018-12-22T05:53:43.523Z,13.8
2018-12-22T05:54:34.445Z,13.8
2018-12-22T05:55:23.975Z,13.8
2018-12-22T05:56:14.879Z,13.8
2018-12-22T05:57:03.813Z,13.8
2018-12-22T05:57:54.340Z,13.8
2018-12-22T05:58:44.643Z,13.8
2018-12-22T05:59:33.933Z,13.8
2018-12-22T06:00:22.672Z,13.8
2018-12-22T06:01:13.929Z,13.7
2018-12-22T06:02:03.877Z,13.7
2018-12-22T06:02:54.697Z,13.7
2018-12-22T06:03:44.737Z,13.7
2018-12-22T06:04:34.277Z,13.7
2018-12-22T06:05:25.237Z,13.6
2018-12-22T06:06:14.212Z,13.6
2018-12-22T06:07:03.860Z,13.6
2018-12-22T06:07:54.499Z,13.6
2018-12-22T06:08:44.244Z,13.6
2018-12-22T06:09:35.185Z,13.6
2018-12-22T06:10:25.228Z,13.6
2018-12-22T06:11:14.426Z,13.6
2018-12-22T06:12:05.654Z,13.6
2018-12-22T06:12:54.281Z,13.6
2018-12-22T06:13:45.754Z,13.5
2018-12-22T06:14:35.887Z,13.5
2018-12-22T06:15:23.591Z,13.5
2018-12-22T06:16:13.999Z,13.5
2018-12-22T06:17:05.946Z,13.5
2018-12-22T06:17:55.551Z,13.5
2018-12-22T06:18:45.499Z,13.5
2018-12-22T06:19:35.277Z,13.4
2018-12-22T06:20:25.351Z,13.5
2018-12-22T06:21:15.651Z,13.4
2018-12-22T06:22:04.774Z,13.4
2018-12-22T06:22:55.007Z,13.4
2018-12-22T06:23:45.574Z,13.4
2018-12-22T06:24:35.819Z,13.4
2018-12-22T06:25:26.376Z,13.4
2018-12-22T06:26:15.762Z,13.4
2018-12-22T06:27:05.064Z,13.4
2018-12-22T06:27:56.093Z,13.3
2018-12-22T06:28:46.158Z,13.3
2018-12-22T06:29:36.631Z,13.3
2018-12-22T06:30:26.276Z,13.3
2018-12-22T06:31:14.950Z,13.3
2018-12-22T06:32:06.356Z,13.3
2018-12-22T06:32:55.911Z,13.3
2018-12-22T06:33:46.528Z,13.3
2018-12-22T06:34:36.547Z,13.3
2018-12-22T06:35:26.643Z,13.3
2018-12-22T06:36:16.650Z,13.3
2018-12-22T06:37:07.147Z,13.3
2018-12-22T06:37:56.540Z,13.2
2018-12-22T06:38:47.311Z,13.2
2018-12-22T06:39:36.878Z,13.2
2018-12-22T06:40:26.355Z,13.2
2018-12-22T06:41:17.163Z,13.2
2018-12-22T06:42:07.154Z,13.2
2018-12-22T06:42:57.030Z,13.1
2018-12-22T06:43:46.650Z,13.1
2018-12-22T06:44:37.552Z,13.1
2018-12-22T06:45:26.835Z,13.1
2018-12-22T06:46:17.485Z,13.1
2018-12-22T06:47:08.242Z,13.1
2018-12-22T06:47:59.444Z,13.1
2018-12-22T06:48:47.013Z,13.1
2018-12-22T06:49:38.081Z,13.1
2018-12-22T06:50:27.612Z,13.1
2018-12-22T06:51:17.719Z,13.1
2018-12-22T06:52:08.209Z,13.1
2018-12-22T06:52:57.861Z,13
2018-12-22T06:53:50.422Z,13.1
2018-12-22T06:54:38.335Z,13
2018-12-22T06:55:28.009Z,13
2018-12-22T06:56:17.764Z,13
2018-12-22T06:57:07.788Z,13
2018-12-22T06:57:58.198Z,13
2018-12-22T06:58:48.566Z,12.9
2018-12-22T06:59:38.846Z,12.9
2018-12-22T07:00:27.799Z,12.9
2018-12-22T07:01:19.077Z,12.9
2018-12-22T07:02:09.219Z,12.9
2018-12-22T07:02:58.924Z,12.9
2018-12-22T07:03:48.802Z,12.9
2018-12-22T07:04:38.153Z,12.9
2018-12-22T07:05:27.821Z,12.9
2018-12-22T07:06:18.951Z,12.9
2018-12-22T07:07:08.771Z,12.9
2018-12-22T07:07:58.266Z,12.9
2018-12-22T07:08:48.936Z,12.9
2018-12-22T07:09:38.111Z,12.8
2018-12-22T07:10:29.659Z,12.9
2018-12-22T07:11:19.600Z,12.8
2018-12-22T07:12:08.536Z,12.8
2018-12-22T07:12:57.699Z,12.8
2018-12-22T07:13:48.720Z,12.8
2018-12-22T07:14:39.003Z,12.8
2018-12-22T07:15:28.771Z,12.8
2018-12-22T07:16:19.406Z,12.8
2018-12-22T07:17:09.546Z,12.8
2018-12-22T07:17:59.836Z,12.8
2018-12-22T07:18:48.738Z,12.8
2018-12-22T07:19:39.355Z,12.8
2018-12-22T07:20:29.080Z,12.8
2018-12-22T07:21:19.737Z,12.7
2018-12-22T07:22:08.732Z,12.7
2018-12-22T07:22:59.578Z,12.7
2018-12-22T07:23:49.859Z,12.7
2018-12-22T07:24:39.493Z,12.7
2018-12-22T07:25:29.980Z,12.7
2018-12-22T07:26:19.445Z,12.7
2018-12-22T07:27:09.459Z,12.7
2018-12-22T07:28:00.447Z,12.6
2018-12-22T07:28:50.230Z,12.6
2018-12-22T07:29:39.992Z,12.6
2018-12-22T07:30:35.112Z,12.6
2018-12-22T07:31:19.823Z,12.6
2018-12-22T07:32:10.469Z,12.6
2018-12-22T07:33:06.332Z,12.6
2018-12-22T07:33:50.276Z,12.6
2018-12-22T07:34:40.069Z,12.6
2018-12-22T07:35:30.755Z,12.6
2018-12-22T07:36:21.075Z,12.6
2018-12-22T07:37:11.052Z,12.6
2018-12-22T07:38:00.546Z,12.6
2018-12-22T07:38:51.601Z,12.6
2018-12-22T07:39:41.031Z,12.6
2018-12-22T07:40:30.611Z,12.6
2018-12-22T07:41:20.318Z,12.6
2018-12-22T07:42:10.876Z,12.5
2018-12-22T07:43:00.441Z,12.5
2018-12-22T07:43:50.732Z,12.5
2018-12-22T07:44:40.819Z,12.5
2018-12-22T07:45:30.603Z,12.5
2018-12-22T07:46:21.218Z,12.5
2018-12-22T07:47:11.218Z,12.5
2018-12-22T07:48:00.871Z,12.5
2018-12-22T07:48:51.743Z,12.5
2018-12-22T07:49:40.613Z,12.5
2018-12-22T07:50:31.205Z,12.4
2018-12-22T07:51:21.330Z,12.4
2018-12-22T07:52:11.350Z,12.4
2018-12-22T07:53:01.839Z,12.4
2018-12-22T07:53:51.347Z,12.4
2018-12-22T07:54:43.932Z,12.4
2018-12-22T07:55:31.783Z,12.4
2018-12-22T07:56:21.499Z,12.4
2018-12-22T07:57:12.355Z,12.4
2018-12-22T07:58:04.173Z,12.4
2018-12-22T07:58:52.248Z,12.4
2018-12-22T07:59:42.655Z,12.4
2018-12-22T08:00:40.552Z,12.4
2018-12-22T08:01:24.500Z,12.4
2018-12-22T08:02:12.490Z,12.4
2018-12-22T08:03:03.054Z,12.4
2018-12-22T08:03:52.695Z,12.4
2018-12-22T08:04:42.695Z,12.4
2018-12-22T08:05:40.774Z,12.4
2018-12-22T08:06:22.357Z,12.4
2018-12-22T08:07:12.531Z,12.4
2018-12-22T08:08:01.804Z,12.4
2018-12-22T08:08:52.512Z,12.4
2018-12-22T08:09:42.967Z,12.4
2018-12-22T08:10:32.290Z,12.4
2018-12-22T08:11:22.532Z,12.4
2018-12-22T08:12:12.292Z,12.4
2018-12-22T08:13:02.905Z,12.4
2018-12-22T08:13:53.237Z,12.4
2018-12-22T08:14:42.267Z,12.4
2018-12-22T08:15:33.361Z,12.4
2018-12-22T08:16:23.989Z,12.4
2018-12-22T08:17:13.211Z,12.4
2018-12-22T08:18:03.506Z,12.4
2018-12-22T08:18:53.609Z,12.4
2018-12-22T08:19:43.438Z,12.4
2018-12-22T08:20:33.211Z,12.4
2018-12-22T08:21:23.041Z,12.4
2018-12-22T08:22:14.716Z,12.4
2018-12-22T08:23:03.498Z,12.4
2018-12-22T08:23:53.179Z,12.4
2018-12-22T08:24:43.701Z,12.4
2018-12-22T08:25:33.481Z,12.4
2018-12-22T08:26:24.406Z,12.4
2018-12-22T08:27:13.581Z,12.4
2018-12-22T08:28:03.010Z,12.4
2018-12-22T08:28:53.523Z,12.4
2018-12-22T08:29:44.223Z,12.4
2018-12-22T08:30:34.086Z,12.4
2018-12-22T08:31:26.548Z,12.4
2018-12-22T08:32:14.776Z,12.4
2018-12-22T08:33:05.103Z,12.5
2018-12-22T08:33:53.338Z,12.5
2018-12-22T08:34:44.113Z,12.5
2018-12-22T08:35:34.676Z,12.5
2018-12-22T08:36:23.280Z,12.5
2018-12-22T08:37:15.126Z,12.5
2018-12-22T08:38:04.333Z,12.5
2018-12-22T08:38:55.373Z,12.5
2018-12-22T08:39:45.105Z,12.6
2018-12-22T08:40:35.613Z,12.6
2018-12-22T08:41:24.292Z,12.6
2018-12-22T08:42:15.195Z,12.6
2018-12-22T08:43:05.236Z,12.6
2018-12-22T08:43:55.097Z,12.6
2018-12-22T08:44:47.556Z,12.6
2018-12-22T08:45:35.135Z,12.6
2018-12-22T08:46:25.155Z,12.6
2018-12-22T08:47:16.017Z,12.6
2018-12-22T08:48:05.545Z,12.7
2018-12-22T08:48:54.786Z,12.7
2018-12-22T08:49:45.472Z,12.7
2018-12-22T08:50:35.462Z,12.7
2018-12-22T08:51:25.227Z,12.7
2018-12-22T08:52:15.542Z,12.8
2018-12-22T08:53:05.500Z,12.8
2018-12-22T08:53:55.944Z,12.8
2018-12-22T08:54:46.287Z,12.8
2018-12-22T08:55:36.099Z,12.8
2018-12-22T08:56:26.092Z,12.8
2018-12-22T08:57:15.607Z,12.8
2018-12-22T08:58:06.902Z,12.8
2018-12-22T08:58:56.314Z,12.8
2018-12-22T08:59:46.671Z,12.8
2018-12-22T09:00:36.692Z,12.8
2018-12-22T09:16:26.247Z,13.1
2018-12-22T09:17:16.690Z,13.1
2018-12-22T09:18:06.707Z,13.1
2018-12-22T09:18:57.010Z,13.1
2018-12-22T09:19:46.796Z,13.1
2018-12-22T09:20:38.946Z,13.1
2018-12-22T09:21:27.485Z,13.1
2018-12-22T09:22:16.629Z,13.1
2018-12-22T09:23:07.282Z,13.1
2018-12-22T09:23:57.111Z,13.1
2018-12-22T09:24:47.385Z,13.1
2018-12-22T09:25:36.885Z,13.2
2018-12-22T09:26:27.320Z,13.2
2018-12-22T09:27:17.000Z,13.2
2018-12-22T09:28:07.572Z,13.2
2018-12-22T09:28:57.704Z,13.2
2018-12-22T09:29:47.407Z,13.2
2018-12-22T09:30:36.767Z,13.2
2018-12-22T09:31:26.109Z,13.3
2018-12-22T09:32:17.332Z,13.3
2018-12-22T09:33:08.057Z,13.3
2018-12-22T09:33:55.836Z,13.3
2018-12-22T09:34:47.462Z,13.3
2018-12-22T09:35:37.786Z,13.3
2018-12-22T09:36:28.142Z,13.3
2018-12-22T09:37:18.554Z,13.3
2018-12-22T09:38:07.696Z,13.3
2018-12-22T09:38:57.459Z,13.3
2018-12-22T09:39:48.105Z,13.3
2018-12-22T09:40:38.267Z,13.3
2018-12-22T09:41:27.178Z,13.3
2018-12-22T09:42:16.991Z,13.4
2018-12-22T09:43:08.096Z,13.4
2018-12-22T09:43:58.471Z,13.4
2018-12-22T09:44:47.953Z,13.4
2018-12-22T09:45:37.376Z,13.4
2018-12-22T09:46:27.400Z,13.4
2018-12-22T09:47:17.830Z,13.4
2018-12-22T09:48:08.676Z,13.4
2018-12-22T09:48:58.753Z,13.4
2018-12-22T09:49:48.510Z,13.4
2018-12-22T09:50:38.342Z,13.4
2018-12-22T09:51:28.606Z,13.4
2018-12-22T09:52:18.412Z,13.5
2018-12-22T09:53:11.500Z,13.5
2018-12-22T09:53:59.733Z,13.5
2018-12-22T09:54:49.371Z,13.5
2018-12-22T09:55:39.504Z,13.5
2018-12-22T09:56:29.585Z,13.6
2018-12-22T09:57:19.036Z,13.6
2018-12-22T09:58:09.347Z,13.6
2018-12-22T09:58:59.620Z,13.6
2018-12-22T09:59:49.140Z,13.6
2018-12-22T10:00:38.732Z,13.6
2018-12-22T10:01:29.055Z,13.6
2018-12-22T10:02:18.839Z,13.6
2018-12-22T10:03:09.712Z,13.6
2018-12-22T10:03:59.000Z,13.6
2018-12-22T10:04:48.795Z,13.6
2018-12-22T10:05:39.434Z,13.7
2018-12-22T10:06:29.642Z,13.7
2018-12-22T10:07:19.267Z,13.7
2018-12-22T10:08:10.549Z,13.7
2018-12-22T10:08:59.242Z,13.7
2018-12-22T10:09:50.122Z,13.8
2018-12-22T10:10:39.874Z,13.7
2018-12-22T10:11:29.646Z,13.8
2018-12-22T10:12:20.049Z,13.8
2018-12-22T10:13:10.079Z,13.8
2018-12-22T10:14:00.492Z,13.8
2018-12-22T10:14:49.881Z,13.8
2018-12-22T10:15:40.326Z,13.8
2018-12-22T10:16:30.967Z,13.8
2018-12-22T10:17:20.616Z,13.8
2018-12-22T10:18:11.354Z,13.8
2018-12-22T10:19:00.806Z,13.8
2018-12-22T10:19:50.864Z,13.8
2018-12-22T10:20:40.301Z,13.8
2018-12-22T10:21:31.160Z,13.8
2018-12-22T10:22:23.549Z,13.9
2018-12-22T10:23:10.969Z,13.9
2018-12-22T10:24:00.779Z,13.9
2018-12-22T10:24:50.901Z,13.9
2018-12-22T10:25:41.558Z,13.9
2018-12-22T10:26:31.485Z,13.9
2018-12-22T10:27:23.524Z,13.9
2018-12-22T10:28:11.647Z,13.9
2018-12-22T10:29:01.688Z,13.9
2018-12-22T10:29:50.365Z,13.9
2018-12-22T10:30:41.500Z,13.9
2018-12-22T10:31:31.883Z,13.9
2018-12-22T10:32:20.505Z,13.9
2018-12-22T10:33:11.410Z,13.9
2018-12-22T10:34:02.146Z,13.9
2018-12-22T10:34:51.608Z,13.9
2018-12-22T10:35:41.725Z,13.9
2018-12-22T10:36:32.202Z,13.9
2018-12-22T10:37:21.745Z,13.9
2018-12-22T10:38:11.193Z,13.9
2018-12-22T10:39:02.342Z,13.9
2018-12-22T10:39:52.170Z,13.9
2018-12-22T10:40:42.035Z,13.9
2018-12-22T10:41:31.158Z,13.9
2018-12-22T10:42:21.963Z,13.9
2018-12-22T10:43:11.090Z,13.9
2018-12-22T10:44:02.312Z,13.9
2018-12-22T10:44:52.338Z,13.9
2018-12-22T10:45:42.260Z,13.9
2018-12-22T10:46:32.404Z,13.9
2018-12-22T10:47:22.665Z,13.9
2018-12-22T10:48:12.339Z,13.9
2018-12-22T10:49:03.039Z,13.9
2018-12-22T10:49:52.934Z,13.9
2018-12-22T10:50:43.437Z,13.9
2018-12-22T10:51:33.307Z,13.9
2018-12-22T10:52:22.092Z,13.9
2018-12-22T10:53:12.062Z,13.9
2018-12-22T10:54:02.692Z,13.9
2018-12-22T10:54:52.939Z,13.9
2018-12-22T10:55:43.037Z,13.9
2018-12-22T10:56:31.967Z,13.9
2018-12-22T10:57:23.670Z,13.9
2018-12-22T10:58:12.732Z,13.9
2018-12-22T10:59:03.322Z,13.8
2018-12-22T10:59:53.013Z,13.9
2018-12-22T11:00:43.155Z,13.8
2018-12-22T11:01:34.842Z,13.8
2018-12-22T11:02:25.187Z,13.8
2018-12-22T11:03:13.814Z,13.8
2018-12-22T11:04:03.399Z,13.8
2018-12-22T11:04:53.027Z,13.8
2018-12-22T11:05:43.499Z,13.8
2018-12-22T11:06:33.186Z,13.8
2018-12-22T11:07:22.997Z,13.8
2018-12-22T11:08:13.324Z,13.8
2018-12-22T11:09:03.489Z,13.8
2018-12-22T11:09:53.165Z,13.8
2018-12-22T11:10:43.852Z,13.8
2018-12-22T11:11:33.837Z,13.8
2018-12-22T11:12:23.616Z,13.8
2018-12-22T11:13:13.979Z,13.8
2018-12-22T11:14:03.534Z,13.8
2018-12-22T11:14:53.871Z,13.8
2018-12-22T11:15:44.019Z,13.7
2018-12-22T11:16:33.731Z,13.7
2018-12-22T11:17:23.511Z,13.7
2018-12-22T11:18:13.761Z,13.7
2018-12-22T11:19:04.598Z,13.7
2018-12-22T11:19:54.960Z,13.7
2018-12-22T11:20:44.475Z,13.7
2018-12-22T11:21:34.839Z,13.7
2018-12-22T11:22:25.314Z,13.6
2018-12-22T11:23:24.237Z,13.6
2018-12-22T11:24:07.518Z,13.6
2018-12-22T11:24:54.702Z,13.6
2018-12-22T11:25:44.830Z,13.6
2018-12-22T11:26:35.281Z,13.6
2018-12-22T11:27:25.661Z,13.6
2018-12-22T11:28:15.398Z,13.6
2018-12-22T11:29:04.684Z,13.6
2018-12-22T11:29:55.532Z,13.6
2018-12-22T11:30:45.153Z,13.6
2018-12-22T11:31:43.713Z,13.6
2018-12-22T11:32:25.720Z,13.6
2018-12-22T11:33:15.413Z,13.6
2018-12-22T11:34:04.565Z,13.6
2018-12-22T11:34:55.235Z,13.6
2018-12-22T11:35:45.277Z,13.6
2018-12-22T11:36:34.405Z,13.6
2018-12-22T11:37:26.210Z,13.5
2018-12-22T11:38:15.669Z,13.5
2018-12-22T11:39:05.524Z,13.5
2018-12-22T11:39:55.737Z,13.5
2018-12-22T11:40:46.110Z,13.5
2018-12-22T11:41:35.612Z,13.5
2018-12-22T11:42:27.163Z,13.5
2018-12-22T11:43:16.712Z,13.5
2018-12-22T11:44:05.385Z,13.4
2018-12-22T11:44:56.564Z,13.4
2018-12-22T11:45:47.296Z,13.5
2018-12-22T11:46:36.482Z,13.4
2018-12-22T11:47:27.327Z,13.4
2018-12-22T11:48:17.359Z,13.4
2018-12-22T11:49:06.564Z,13.4
2018-12-22T11:49:56.747Z,13.4
2018-12-22T11:50:47.744Z,13.4
2018-12-22T11:51:36.609Z,13.4
2018-12-22T11:52:26.822Z,13.4
2018-12-22T11:53:17.183Z,13.4
2018-12-22T11:54:06.906Z,13.4
2018-12-22T11:54:57.246Z,13.4
2018-12-22T11:55:46.468Z,13.4
2018-12-22T11:56:37.161Z,13.4
2018-12-22T11:57:27.248Z,13.4